createdAt,value
2018-09-18T00:00:18.313Z,17.79
2018-09-18T00:01:18.286Z,17.75
2018-09-18T00:02:18.282Z,17.76
2018-09-18T00:03:18.255Z,17.73
2018-09-18T00:04:18.236Z,17.82
2018-09-18T00:05:18.224Z,17.76
2018-09-18T00:06:18.205Z,17.78
2018-09-18T00:07:18.195Z,17.78
2018-09-18T00:08:18.173Z,17.72
2018-09-18T00:09:18.157Z,17.75
2018-09-18T00:10:18.145Z,17.73
2018-09-18T00:11:18.126Z,17.86
2018-09-18T00:12:18.107Z,17.80
2018-09-18T00:13:18.151Z,17.75
2018-09-18T00:14:18.074Z,17.78
2018-09-18T00:15:18.062Z,17.73
2018-09-18T00:16:18.105Z,17.73
2018-09-18T00:17:18.033Z,17.72
2018-09-18T00:18:18.013Z,17.76
2018-09-18T00:19:17.996Z,17.76
2018-09-18T00:20:17.984Z,17.78
2018-09-18T00:21:17.969Z,17.86
2018-09-18T00:22:17.945Z,17.80
2018-09-18T00:23:17.938Z,17.79
2018-09-18T00:24:17.911Z,17.75
2018-09-18T00:25:17.896Z,17.75
2018-09-18T00:26:17.881Z,17.78
2018-09-18T00:27:17.870Z,17.76
2018-09-18T00:28:17.853Z,17.73
2018-09-18T00:29:17.838Z,17.75
2018-09-18T00:30:17.830Z,17.78
2018-09-18T00:31:17.800Z,17.79
2018-09-18T00:32:17.898Z,17.73
2018-09-18T00:33:17.765Z,17.80
2018-09-18T00:34:17.758Z,17.87
2018-09-18T00:35:17.740Z,17.84
2018-09-18T00:36:17.721Z,17.80
2018-09-18T00:37:17.700Z,17.86
2018-09-18T00:38:17.688Z,17.80
2018-09-18T00:39:17.669Z,17.84
2018-09-18T00:40:17.652Z,17.76
2018-09-18T00:41:17.637Z,17.82
2018-09-18T00:42:17.620Z,17.84
2018-09-18T00:43:17.602Z,17.80
2018-09-18T00:44:17.588Z,17.80
2018-09-18T00:45:17.572Z,17.86
2018-09-18T00:46:17.554Z,17.86
2018-09-18T00:47:17.538Z,17.95
2018-09-18T00:48:17.525Z,17.84
2018-09-18T00:49:17.507Z,17.91
2018-09-18T00:50:17.488Z,17.95
2018-09-18T00:51:17.475Z,17.90
2018-09-18T00:52:17.453Z,17.91
2018-09-18T00:53:17.438Z,17.80
2018-09-18T00:54:17.423Z,17.80
2018-09-18T00:55:17.421Z,17.82
2018-09-18T00:56:17.531Z,17.91
2018-09-18T00:57:17.381Z,17.78
2018-09-18T00:58:17.358Z,17.84
2018-09-18T00:59:17.447Z,17.84
2018-09-18T01:00:17.327Z,17.79
2018-09-18T01:01:17.308Z,17.88
2018-09-18T01:02:17.342Z,17.78
2018-09-18T01:03:17.280Z,17.84
2018-09-18T01:04:17.264Z,17.76
2018-09-18T01:05:17.241Z,17.90
2018-09-18T01:06:17.227Z,17.82
2018-09-18T01:07:17.211Z,17.80
2018-09-18T01:08:17.193Z,17.79
2018-09-18T01:09:17.177Z,17.82
2018-09-18T01:10:17.160Z,17.84
2018-09-18T01:11:17.149Z,17.79
2018-09-18T01:12:17.128Z,17.80
2018-09-18T01:13:17.115Z,17.76
2018-09-18T01:14:17.099Z,17.86
2018-09-18T01:15:17.199Z,17.80
2018-09-18T01:16:17.065Z,17.76
2018-09-18T01:17:17.047Z,17.72
2018-09-18T01:18:17.030Z,17.73
2018-09-18T01:19:17.017Z,17.78
2018-09-18T01:20:16.997Z,17.76
2018-09-18T01:21:16.981Z,17.71
2018-09-18T01:22:16.965Z,17.73
2018-09-18T01:23:16.946Z,17.82
2018-09-18T01:24:16.940Z,17.71
2018-09-18T01:25:16.914Z,17.86
2018-09-18T01:26:16.896Z,17.72
2018-09-18T01:27:16.886Z,17.80
2018-09-18T01:28:16.881Z,17.82
2018-09-18T01:29:16.848Z,17.71
2018-09-18T01:30:16.832Z,17.71
2018-09-18T01:31:16.818Z,17.75
2018-09-18T01:32:16.799Z,17.66
2018-09-18T01:33:16.785Z,17.63
2018-09-18T01:34:16.927Z,17.73
2018-09-18T01:35:16.748Z,17.65
2018-09-18T01:36:16.735Z,17.54
2018-09-18T01:37:16.719Z,17.69
2018-09-18T01:38:16.699Z,17.59
2018-09-18T01:39:16.687Z,17.66
2018-09-18T01:40:16.666Z,17.59
2018-09-18T01:41:16.650Z,17.65
2018-09-18T01:42:16.636Z,17.60
2018-09-18T01:43:16.623Z,17.54
2018-09-18T01:44:16.620Z,17.57
2018-09-18T01:45:16.601Z,17.47
2018-09-18T01:46:16.573Z,17.57
2018-09-18T01:47:16.555Z,17.53
2018-09-18T01:48:16.536Z,17.54
2018-09-18T01:49:16.527Z,17.50
2018-09-18T01:50:16.504Z,17.47
2018-09-18T01:51:16.487Z,17.47
2018-09-18T01:52:16.468Z,17.49
2018-09-18T01:53:16.452Z,17.54
2018-09-18T01:54:16.437Z,17.50
2018-09-18T01:55:16.423Z,17.52
2018-09-18T01:56:16.402Z,17.47
2018-09-18T01:57:16.385Z,17.46
2018-09-18T01:58:16.372Z,17.47
2018-09-18T01:59:16.364Z,17.44
2018-09-18T02:00:16.340Z,17.39
2018-09-18T02:01:16.446Z,17.44
2018-09-18T02:02:16.312Z,17.50
2018-09-18T02:03:16.287Z,17.42
2018-09-18T02:04:16.382Z,17.46
2018-09-18T02:05:49.469Z,17.50
2018-09-18T02:06:16.242Z,17.41
2018-09-18T02:07:16.224Z,17.47
2018-09-18T02:08:16.208Z,17.44
2018-09-18T02:09:16.193Z,17.42
2018-09-18T02:10:16.173Z,17.44
2018-09-18T02:11:16.159Z,17.38
2018-09-18T02:12:16.159Z,17.37
2018-09-18T02:13:16.125Z,17.39
2018-09-18T02:14:16.113Z,17.39
2018-09-18T02:15:16.094Z,17.38
2018-09-18T02:16:16.075Z,17.38
2018-09-18T02:17:16.058Z,17.38
2018-09-18T02:18:16.047Z,17.37
2018-09-18T02:19:16.024Z,17.35
2018-09-18T02:20:16.015Z,17.38
2018-09-18T02:21:15.992Z,17.37
2018-09-18T02:22:15.976Z,17.37
2018-09-18T02:23:15.962Z,17.34
2018-09-18T02:24:15.944Z,17.34
2018-09-18T02:25:15.929Z,17.32
2018-09-18T02:26:15.912Z,17.28
2018-09-18T02:27:15.896Z,17.27
2018-09-18T02:28:15.898Z,17.28
2018-09-18T02:29:15.861Z,17.27
2018-09-18T02:30:15.844Z,17.30
2018-09-18T02:31:15.931Z,17.35
2018-09-18T02:32:15.822Z,17.32
2018-09-18T02:33:15.794Z,17.34
2018-09-18T02:34:15.775Z,17.27
2018-09-18T02:35:15.762Z,17.31
2018-09-18T02:36:15.755Z,17.28
2018-09-18T02:37:15.726Z,17.28
2018-09-18T02:38:15.711Z,17.19
2018-09-18T02:39:15.694Z,17.24
2018-09-18T02:40:15.687Z,17.28
2018-09-18T02:41:15.662Z,17.17
2018-09-18T02:42:15.643Z,17.17
2018-09-18T02:43:15.629Z,17.20
2018-09-18T02:44:15.612Z,17.23
2018-09-18T02:45:15.593Z,17.23
2018-09-18T02:46:15.580Z,17.14
2018-09-18T02:47:15.558Z,17.27
2018-09-18T02:48:15.545Z,17.23
2018-09-18T02:49:15.526Z,17.19
2018-09-18T02:50:15.567Z,17.20
2018-09-18T02:51:15.495Z,17.19
2018-09-18T02:52:15.480Z,17.19
2018-09-18T02:53:15.461Z,17.24
2018-09-18T02:54:15.443Z,17.19
2018-09-18T02:55:15.431Z,17.16
2018-09-18T02:56:15.410Z,17.20
2018-09-18T02:57:15.394Z,17.12
2018-09-18T02:58:15.383Z,17.10
2018-09-18T02:59:15.361Z,17.19
2018-09-18T03:00:15.343Z,17.05
2018-09-18T03:01:15.325Z,17.16
2018-09-18T03:02:15.312Z,17.16
2018-09-18T03:03:15.298Z,17.14
2018-09-18T03:04:15.287Z,17.13
2018-09-18T03:05:15.260Z,17.05
2018-09-18T03:06:15.370Z,17.09
2018-09-18T03:07:15.236Z,17.04
2018-09-18T03:08:15.211Z,17.01
2018-09-18T03:09:15.196Z,17.01
2018-09-18T03:10:15.184Z,16.92
2018-09-18T03:11:15.180Z,16.95
2018-09-18T03:12:15.147Z,16.98
2018-09-18T03:13:15.128Z,16.87
2018-09-18T03:14:15.110Z,16.87
2018-09-18T03:15:15.102Z,16.98
2018-09-18T03:16:15.082Z,16.92
2018-09-18T03:17:15.166Z,16.87
2018-09-18T03:18:15.048Z,16.94
2018-09-18T03:19:15.030Z,16.83
2018-09-18T03:20:15.024Z,16.79
2018-09-18T03:21:15.000Z,16.83
2018-09-18T03:22:14.982Z,16.86
2018-09-18T03:23:14.961Z,16.83
2018-09-18T03:24:14.951Z,16.89
2018-09-18T03:25:14.930Z,16.82
2018-09-18T03:26:14.912Z,16.92
2018-09-18T03:27:14.947Z,16.84
2018-09-18T03:28:14.878Z,16.86
2018-09-18T03:29:14.862Z,16.80
2018-09-18T03:30:14.860Z,16.80
2018-09-18T03:31:14.832Z,16.86
2018-09-18T03:32:14.816Z,16.76
2018-09-18T03:33:14.800Z,16.77
2018-09-18T03:34:14.788Z,16.73
2018-09-18T03:35:14.762Z,16.83
2018-09-18T03:36:14.898Z,16.77
2018-09-18T03:37:14.731Z,16.80
2018-09-18T03:38:14.717Z,16.76
2018-09-18T03:39:14.695Z,16.66
2018-09-18T03:40:14.679Z,16.72
2018-09-18T03:41:14.666Z,16.79
2018-09-18T03:42:14.646Z,16.68
2018-09-18T03:43:14.628Z,16.59
2018-09-18T03:44:14.616Z,16.73
2018-09-18T03:45:14.599Z,16.59
2018-09-18T03:46:14.589Z,16.59
2018-09-18T03:47:14.571Z,16.47
2018-09-18T03:48:14.546Z,16.57
2018-09-18T03:49:14.533Z,16.66
2018-09-18T03:50:14.512Z,16.61
2018-09-18T03:51:14.498Z,16.61
2018-09-18T03:52:14.478Z,16.65
2018-09-18T03:53:14.462Z,16.58
2018-09-18T03:54:14.446Z,16.64
2018-09-18T03:55:14.442Z,16.61
2018-09-18T03:56:14.421Z,16.61
2018-09-18T03:57:14.400Z,16.61
2018-09-18T03:58:14.387Z,16.59
2018-09-18T03:59:14.365Z,16.62
2018-09-18T04:00:14.347Z,16.62
2018-09-18T04:01:14.329Z,16.64
2018-09-18T04:02:14.314Z,16.51
2018-09-18T04:03:14.315Z,16.49
2018-09-18T04:04:14.278Z,16.49
2018-09-18T04:05:14.289Z,16.46
2018-09-18T04:06:14.257Z,16.44
2018-09-18T04:07:14.233Z,16.49
2018-09-18T04:08:14.216Z,16.46
2018-09-18T04:09:14.197Z,16.40
2018-09-18T04:10:14.191Z,16.40
2018-09-18T04:11:14.174Z,16.28
2018-09-18T04:12:14.150Z,16.36
2018-09-18T04:13:14.130Z,16.39
2018-09-18T04:14:14.123Z,16.32
2018-09-18T04:15:14.095Z,16.31
2018-09-18T04:16:14.075Z,16.37
2018-09-18T04:17:14.080Z,16.39
2018-09-18T04:18:14.047Z,16.32
2018-09-18T04:19:14.029Z,16.39
2018-09-18T04:20:14.011Z,16.36
2018-09-18T04:21:13.995Z,16.31
2018-09-18T04:22:13.995Z,16.25
2018-09-18T04:23:13.963Z,16.25
2018-09-18T04:24:13.948Z,16.25
2018-09-18T04:25:13.931Z,16.26
2018-09-18T04:26:13.922Z,16.34
2018-09-18T04:27:13.896Z,16.29
2018-09-18T04:28:13.880Z,16.32
2018-09-18T04:29:13.861Z,16.28
2018-09-18T04:30:13.852Z,16.22
2018-09-18T04:31:13.835Z,16.28
2018-09-18T04:32:13.811Z,16.24
2018-09-18T04:33:13.796Z,16.24
2018-09-18T04:34:13.781Z,16.21
2018-09-18T04:35:13.760Z,16.32
2018-09-18T04:36:13.754Z,16.22
2018-09-18T04:37:13.731Z,16.31
2018-09-18T04:38:13.711Z,16.13
2018-09-18T04:39:13.705Z,16.26
2018-09-18T04:40:13.681Z,16.25
2018-09-18T04:41:13.662Z,16.22
2018-09-18T04:42:13.649Z,16.25
2018-09-18T04:43:13.638Z,16.17
2018-09-18T04:44:13.610Z,16.24
2018-09-18T04:45:13.593Z,16.17
2018-09-18T04:46:13.585Z,16.13
2018-09-18T04:47:13.569Z,16.13
2018-09-18T04:48:13.551Z,16.13
2018-09-18T04:49:13.527Z,16.24
2018-09-18T04:50:13.511Z,16.16
2018-09-18T04:51:13.496Z,16.18
2018-09-18T04:52:13.480Z,16.16
2018-09-18T04:53:13.470Z,16.10
2018-09-18T04:54:13.451Z,16.17
2018-09-18T04:55:13.428Z,16.09
2018-09-18T04:56:13.412Z,16.08
2018-09-18T04:57:13.395Z,16.21
2018-09-18T04:58:13.376Z,16.16
2018-09-18T04:59:13.359Z,16.17
2018-09-18T05:00:13.343Z,16.16
2018-09-18T05:01:13.328Z,16.10
2018-09-18T05:02:13.350Z,16.24
2018-09-18T05:03:13.289Z,16.08
2018-09-18T05:04:13.272Z,16.00
2018-09-18T05:05:13.262Z,15.99
2018-09-18T05:06:13.248Z,16.00
2018-09-18T05:07:13.226Z,16.06
2018-09-18T05:08:13.212Z,16.06
2018-09-18T05:09:13.281Z,15.99
2018-09-18T05:10:13.172Z,15.99
2018-09-18T05:11:13.165Z,15.96
2018-09-18T05:12:13.139Z,16.02
2018-09-18T05:13:13.125Z,15.92
2018-09-18T05:14:13.102Z,15.90
2018-09-18T05:15:13.088Z,15.92
2018-09-18T05:16:13.071Z,15.91
2018-09-18T05:17:13.052Z,15.91
2018-09-18T05:18:13.036Z,15.92
2018-09-18T05:19:13.019Z,15.91
2018-09-18T05:20:13.003Z,15.87
2018-09-18T05:21:12.985Z,15.90
2018-09-18T05:22:12.967Z,15.90
2018-09-18T05:23:12.951Z,15.83
2018-09-18T05:24:12.969Z,15.87
2018-09-18T05:25:12.917Z,15.85
2018-09-18T05:26:12.899Z,15.87
2018-09-18T05:27:12.990Z,15.84
2018-09-18T05:28:12.874Z,15.87
2018-09-18T05:29:12.852Z,15.85
2018-09-18T05:30:12.845Z,15.81
2018-09-18T05:31:12.818Z,15.88
2018-09-18T05:32:12.799Z,15.83
2018-09-18T05:33:12.782Z,15.83
2018-09-18T05:34:12.764Z,15.91
2018-09-18T05:35:12.764Z,15.91
2018-09-18T05:36:12.730Z,15.92
2018-09-18T05:37:12.716Z,15.90
2018-09-18T05:38:12.705Z,16.00
2018-09-18T05:39:12.682Z,16.00
2018-09-18T05:40:12.664Z,15.98
2018-09-18T05:41:12.645Z,16.08
2018-09-18T05:42:12.629Z,16.03
2018-09-18T05:43:12.613Z,16.06
2018-09-18T05:44:12.603Z,16.02
2018-09-18T05:45:12.580Z,16.09
2018-09-18T05:46:12.560Z,16.09
2018-09-18T05:47:12.546Z,16.03
2018-09-18T05:48:12.566Z,16.13
2018-09-18T05:49:12.519Z,16.10
2018-09-18T05:50:12.494Z,16.16
2018-09-18T05:51:12.486Z,16.24
2018-09-18T05:52:12.465Z,16.32
2018-09-18T05:53:12.443Z,16.17
2018-09-18T05:54:12.435Z,16.36
2018-09-18T05:55:12.423Z,16.32
2018-09-18T05:56:12.393Z,16.29
2018-09-18T05:57:12.388Z,16.29
2018-09-18T05:58:12.359Z,16.39
2018-09-18T05:59:12.348Z,16.36
2018-09-18T06:00:12.325Z,16.40
2018-09-18T06:01:12.307Z,16.49
2018-09-18T06:02:12.359Z,16.47
2018-09-18T06:03:12.274Z,16.44
2018-09-18T06:04:12.261Z,16.51
2018-09-18T06:05:12.244Z,16.49
2018-09-18T06:06:12.226Z,16.49
2018-09-18T06:07:12.207Z,16.57
2018-09-18T06:08:12.193Z,16.59
2018-09-18T06:09:12.175Z,16.64
2018-09-18T06:10:12.164Z,16.58
2018-09-18T06:11:12.138Z,16.65
2018-09-18T06:12:12.127Z,16.69
2018-09-18T06:13:12.107Z,16.74
2018-09-18T06:14:12.090Z,16.73
2018-09-18T06:15:12.074Z,16.76
2018-09-18T06:16:12.059Z,16.73
2018-09-18T06:17:12.045Z,16.79
2018-09-18T06:18:12.028Z,16.86
2018-09-18T06:19:12.123Z,16.84
2018-09-18T06:20:11.992Z,16.80
2018-09-18T06:21:11.977Z,16.83
2018-09-18T06:22:11.962Z,17.02
2018-09-18T06:23:11.941Z,16.97
2018-09-18T06:24:11.922Z,16.98
2018-09-18T06:25:11.912Z,17.01
2018-09-18T06:26:11.908Z,17.05
2018-09-18T06:27:11.872Z,17.04
2018-09-18T06:28:11.862Z,17.05
2018-09-18T06:29:11.840Z,17.02
2018-09-18T06:30:11.828Z,17.10
2018-09-18T06:31:11.813Z,17.19
2018-09-18T06:32:11.791Z,17.19
2018-09-18T06:33:11.775Z,17.20
2018-09-18T06:34:11.756Z,17.17
2018-09-18T06:35:11.742Z,17.34
2018-09-18T06:36:11.726Z,17.24
2018-09-18T06:37:11.707Z,17.27
2018-09-18T06:38:11.694Z,17.35
2018-09-18T06:39:11.684Z,17.39
2018-09-18T06:40:11.810Z,17.38
2018-09-18T06:41:11.642Z,17.35
2018-09-18T06:42:11.628Z,17.50
2018-09-18T06:43:11.616Z,17.53
2018-09-18T06:44:11.609Z,17.66
2018-09-18T06:45:11.579Z,17.68
2018-09-18T06:46:11.566Z,17.63
2018-09-18T06:47:11.544Z,17.75
2018-09-18T06:48:11.527Z,17.79
2018-09-18T06:49:11.514Z,17.79
2018-09-18T06:50:11.495Z,17.90
2018-09-18T06:51:11.480Z,17.94
2018-09-18T06:52:11.461Z,17.91
2018-09-18T06:53:11.445Z,18.03
2018-09-18T06:54:11.429Z,17.98
2018-09-18T06:55:11.412Z,18.09
2018-09-18T06:56:11.468Z,18.13
2018-09-18T06:57:11.393Z,18.18
2018-09-18T06:58:11.362Z,18.23
2018-09-18T06:59:11.440Z,18.24
2018-09-18T07:00:11.330Z,18.18
2018-09-18T07:01:11.315Z,18.33
2018-09-18T07:02:11.302Z,18.39
2018-09-18T07:03:11.284Z,18.37
2018-09-18T07:04:11.265Z,18.49
2018-09-18T07:05:11.257Z,18.58
2018-09-18T07:06:11.235Z,18.63
2018-09-18T07:07:11.225Z,18.63
2018-09-18T07:08:11.208Z,18.71
2018-09-18T07:09:11.188Z,18.76
2018-09-18T07:10:11.167Z,18.79
2018-09-18T07:11:11.153Z,18.92
2018-09-18T07:12:11.134Z,18.86
2018-09-18T07:13:11.124Z,19.08
2018-09-18T07:14:11.104Z,19.19
2018-09-18T07:15:11.254Z,19.26
2018-09-18T07:16:11.080Z,19.29
2018-09-18T07:17:11.059Z,19.34
2018-09-18T07:18:11.162Z,19.42
2018-09-18T07:19:11.023Z,19.42
2018-09-18T07:20:11.008Z,19.42
2018-09-18T07:21:10.989Z,19.48
2018-09-18T07:22:10.984Z,19.55
2018-09-18T07:23:10.966Z,19.52
2018-09-18T07:24:10.948Z,19.72
2018-09-18T07:25:10.929Z,19.77
2018-09-18T07:26:10.909Z,19.92
2018-09-18T07:27:10.892Z,19.93
2018-09-18T07:28:10.878Z,19.97
2018-09-18T07:29:10.862Z,19.99
2018-09-18T07:30:10.846Z,20.07
2018-09-18T07:31:10.831Z,20.24
2018-09-18T07:32:10.820Z,20.18
2018-09-18T07:33:10.804Z,20.26
2018-09-18T07:34:10.783Z,20.30
2018-09-18T07:35:10.766Z,20.36
2018-09-18T07:36:10.819Z,20.53
2018-09-18T07:37:10.740Z,20.52
2018-09-18T07:38:10.718Z,20.67
2018-09-18T07:39:10.705Z,20.73
2018-09-18T07:40:10.686Z,20.86
2018-09-18T07:41:10.779Z,20.89
2018-09-18T07:42:10.654Z,20.93
2018-09-18T07:43:10.645Z,20.96
2018-09-18T07:44:10.630Z,21.00
2018-09-18T07:45:10.709Z,21.11
2018-09-18T07:46:10.595Z,21.15
2018-09-18T07:47:10.584Z,21.22
2018-09-18T07:48:10.560Z,21.43
2018-09-18T07:49:10.544Z,21.59
2018-09-18T07:50:10.539Z,21.70
2018-09-18T07:51:10.520Z,21.77
2018-09-18T07:52:10.514Z,21.94
2018-09-18T07:53:10.497Z,22.07
2018-09-18T07:54:10.472Z,22.14
2018-09-18T07:55:10.454Z,22.22
2018-09-18T07:56:10.438Z,22.21
2018-09-18T07:57:10.423Z,22.23
2018-09-18T07:58:10.414Z,22.34
2018-09-18T07:59:10.392Z,22.49
2018-09-18T08:00:10.378Z,22.62
2018-09-18T08:01:10.518Z,22.81
2018-09-18T08:02:10.349Z,22.84
2018-09-18T08:03:10.388Z,22.80
2018-09-18T08:04:10.315Z,22.93
2018-09-18T08:05:10.310Z,22.93
2018-09-18T08:06:10.287Z,23.02
2018-09-18T08:07:10.282Z,23.01
2018-09-18T08:08:10.254Z,23.02
2018-09-18T08:09:10.250Z,23.11
2018-09-18T08:10:10.225Z,23.10
2018-09-18T08:11:10.214Z,23.20
2018-09-18T08:12:10.197Z,23.36
2018-09-18T08:13:10.184Z,23.45
2018-09-18T08:14:10.173Z,23.59
2018-09-18T08:15:10.152Z,23.70
2018-09-18T08:16:10.146Z,23.67
2018-09-18T08:17:10.123Z,23.86
2018-09-18T08:18:10.118Z,23.94
2018-09-18T08:19:10.126Z,24.03
2018-09-18T08:20:10.084Z,24.09
2018-09-18T08:21:10.068Z,24.13
2018-09-18T08:22:10.124Z,24.28
2018-09-18T08:23:10.047Z,24.41
2018-09-18T08:24:10.021Z,24.56
2018-09-18T08:25:10.037Z,24.58
2018-09-18T08:26:09.995Z,24.62
2018-09-18T08:27:10.008Z,24.66
2018-09-18T08:28:09.964Z,24.75
2018-09-18T08:29:09.951Z,24.85
2018-09-18T08:30:09.938Z,24.85
2018-09-18T08:31:09.922Z,24.85
2018-09-18T08:32:09.909Z,24.84
2018-09-18T08:33:09.903Z,25.14
2018-09-18T08:34:09.887Z,25.24
2018-09-18T08:35:09.873Z,25.30
2018-09-18T08:36:09.853Z,25.31
2018-09-18T08:37:09.839Z,25.43
2018-09-18T08:38:09.834Z,25.41
2018-09-18T08:39:09.839Z,25.61
2018-09-18T08:40:10.023Z,25.63
2018-09-18T08:41:09.787Z,25.66
2018-09-18T08:42:09.771Z,25.92
2018-09-18T08:43:09.761Z,25.99
2018-09-18T08:44:09.754Z,26.15
2018-09-18T08:45:09.734Z,26.22
2018-09-18T08:46:09.763Z,26.23
2018-09-18T08:47:09.757Z,26.29
2018-09-18T08:48:09.701Z,26.29
2018-09-18T08:49:09.682Z,26.39
2018-09-18T08:50:09.680Z,26.51
2018-09-18T08:51:09.677Z,26.78
2018-09-18T08:52:09.789Z,27.05
2018-09-18T08:53:09.640Z,27.29
2018-09-18T08:54:09.626Z,27.55
2018-09-18T08:55:09.605Z,27.76
2018-09-18T08:56:09.592Z,28.06
2018-09-18T08:57:09.597Z,28.13
2018-09-18T08:58:09.593Z,28.09
2018-09-18T08:59:09.593Z,28.15
2018-09-18T09:00:09.551Z,28.18
2018-09-18T09:01:09.539Z,28.30
2018-09-18T09:02:09.531Z,28.40
2018-09-18T09:03:09.591Z,28.49
2018-09-18T09:04:09.504Z,28.52
2018-09-18T09:05:09.551Z,28.68
2018-09-18T09:06:09.543Z,28.80
2018-09-18T09:07:09.470Z,28.96
2018-09-18T09:08:09.607Z,29.03
2018-09-18T09:09:09.526Z,29.21
2018-09-18T09:10:09.577Z,29.47
2018-09-18T09:11:09.424Z,29.50
2018-09-18T09:12:09.413Z,29.83
2018-09-18T09:13:09.401Z,29.77
2018-09-18T09:14:09.395Z,29.96
2018-09-18T09:15:09.469Z,30.02
2018-09-18T09:16:09.369Z,29.71
2018-09-18T09:17:09.359Z,29.57
2018-09-18T09:18:09.434Z,29.49
2018-09-18T09:19:09.335Z,29.43
2018-09-18T09:20:09.351Z,29.34
2018-09-18T09:21:09.487Z,29.16
2018-09-18T09:22:09.407Z,29.27
2018-09-18T09:23:09.320Z,29.21
2018-09-18T09:24:09.284Z,29.32
2018-09-18T09:25:09.271Z,29.37
2018-09-18T09:26:09.265Z,29.53
2018-09-18T09:27:09.282Z,29.74
2018-09-18T09:28:09.260Z,30.03
2018-09-18T09:29:09.227Z,30.24
2018-09-18T09:30:09.335Z,30.46
2018-09-18T09:31:09.210Z,30.83
2018-09-18T09:32:09.312Z,31.36
2018-09-18T09:33:09.184Z,31.81
2018-09-18T09:34:09.198Z,31.77
2018-09-18T09:35:09.171Z,32.23
2018-09-18T09:36:09.158Z,32.45
2018-09-18T09:37:09.190Z,32.76
2018-09-18T09:38:11.793Z,32.64
2018-09-18T09:39:09.137Z,32.27
2018-09-18T09:40:09.133Z,32.30
2018-09-18T09:41:09.117Z,32.29
2018-09-18T09:42:09.115Z,32.68
2018-09-18T09:43:09.100Z,33.04
2018-09-18T09:44:09.091Z,33.45
2018-09-18T09:45:11.817Z,33.72
2018-09-18T09:46:09.080Z,33.55
2018-09-18T09:47:09.077Z,33.63
2018-09-18T09:48:09.073Z,33.48
2018-09-18T09:49:09.077Z,33.15
2018-09-18T09:50:09.061Z,33.08
2018-09-18T09:51:09.159Z,33.22
2018-09-18T09:52:09.058Z,33.66
2018-09-18T09:53:10.467Z,34.04
2018-09-18T09:54:09.043Z,33.91
2018-09-18T09:55:09.042Z,33.54
2018-09-18T09:56:09.035Z,33.39
2018-09-18T09:57:09.035Z,33.36
2018-09-18T09:58:09.039Z,33.67
2018-09-18T09:59:09.037Z,33.70
2018-09-18T10:00:09.046Z,33.66
2018-09-18T10:01:09.022Z,33.73
2018-09-18T10:02:09.022Z,34.18
2018-09-18T10:03:09.022Z,34.28
2018-09-18T10:04:09.015Z,33.67
2018-09-18T10:05:09.018Z,33.32
2018-09-18T10:06:09.010Z,33.40
2018-09-18T10:07:09.018Z,33.44
2018-09-18T10:08:09.011Z,33.98
2018-09-18T10:09:09.007Z,34.59
2018-09-18T10:10:09.005Z,34.70
2018-09-18T10:11:09.012Z,35.00
2018-09-18T10:12:09.001Z,35.34
2018-09-18T10:13:09.011Z,35.61
2018-09-18T10:14:09.004Z,35.72
2018-09-18T10:15:09.025Z,35.68
2018-09-18T10:16:08.999Z,34.91
2018-09-18T10:17:08.997Z,34.13
2018-09-18T10:18:09.097Z,33.75
2018-09-18T10:19:08.997Z,34.03
2018-09-18T10:20:08.997Z,34.44
2018-09-18T10:21:08.994Z,34.50
2018-09-18T10:22:08.994Z,34.53
2018-09-18T10:23:09.026Z,34.51
2018-09-18T10:24:09.011Z,34.14
2018-09-18T10:25:09.015Z,34.44
2018-09-18T10:26:09.161Z,34.25
2018-09-18T10:27:09.143Z,33.92
2018-09-18T10:28:09.001Z,33.97
2018-09-18T10:29:08.999Z,34.33
2018-09-18T10:30:08.993Z,34.26
2018-09-18T10:31:09.027Z,34.66
2018-09-18T10:32:09.003Z,34.85
2018-09-18T10:33:09.007Z,34.21
2018-09-18T10:34:08.998Z,34.18
2018-09-18T10:35:09.008Z,34.35
2018-09-18T10:36:08.989Z,33.97
2018-09-18T10:37:09.024Z,34.02
2018-09-18T10:38:08.990Z,34.25
2018-09-18T10:39:09.026Z,34.41
2018-09-18T10:40:09.034Z,34.25
2018-09-18T10:41:09.112Z,34.38
2018-09-18T10:42:09.041Z,34.35
2018-09-18T10:43:08.992Z,34.47
2018-09-18T10:44:08.993Z,34.75
2018-09-18T10:45:08.996Z,35.15
2018-09-18T10:46:08.986Z,35.47
2018-09-18T10:47:08.988Z,35.84
2018-09-18T10:48:09.007Z,35.84
2018-09-18T10:49:09.002Z,35.60
2018-09-18T10:50:09.000Z,35.57
2018-09-18T10:51:08.986Z,35.66
2018-09-18T10:52:08.988Z,35.54
2018-09-18T10:53:08.985Z,34.97
2018-09-18T10:54:08.994Z,34.89
2018-09-18T10:55:09.000Z,34.73
2018-09-18T10:56:08.986Z,34.55
2018-09-18T10:57:08.993Z,34.94
2018-09-18T10:58:08.991Z,34.93
2018-09-18T10:59:08.987Z,35.00
2018-09-18T11:00:08.984Z,34.55
2018-09-18T11:01:08.997Z,34.44
2018-09-18T11:02:09.119Z,34.06
2018-09-18T11:03:09.016Z,34.41
2018-09-18T11:04:08.985Z,34.50
2018-09-18T11:05:09.118Z,34.65
2018-09-18T11:06:09.008Z,34.83
2018-09-18T11:07:09.085Z,35.05
2018-09-18T11:08:09.023Z,35.07
2018-09-18T11:09:08.993Z,35.01
2018-09-18T11:10:09.069Z,35.07
2018-09-18T11:11:09.004Z,35.05
2018-09-18T11:12:08.987Z,35.03
2018-09-18T11:13:09.035Z,35.04
2018-09-18T11:14:09.009Z,34.71
2018-09-18T11:15:08.984Z,34.44
2018-09-18T11:16:09.198Z,33.98
2018-09-18T11:17:09.003Z,34.19
2018-09-18T11:18:09.125Z,34.14
2018-09-18T11:19:08.981Z,34.18
2018-09-18T11:20:08.979Z,34.33
2018-09-18T11:21:08.984Z,34.53
2018-09-18T11:22:09.011Z,34.53
2018-09-18T11:23:08.987Z,34.33
2018-09-18T11:24:09.070Z,34.03
2018-09-18T11:25:09.027Z,34.10
2018-09-18T11:26:08.997Z,34.09
2018-09-18T11:27:08.984Z,34.16
2018-09-18T11:28:08.996Z,34.44
2018-09-18T11:29:08.978Z,34.73
2018-09-18T11:30:08.983Z,34.82
2018-09-18T11:31:08.997Z,34.11
2018-09-18T11:32:08.981Z,34.32
2018-09-18T11:33:08.969Z,34.53
2018-09-18T11:34:08.970Z,34.33
2018-09-18T11:35:08.964Z,34.18
2018-09-18T11:36:08.963Z,33.97
2018-09-18T11:37:08.961Z,34.06
2018-09-18T11:38:08.973Z,33.75
2018-09-18T11:39:08.964Z,34.16
2018-09-18T11:40:08.958Z,34.46
2018-09-18T11:41:08.999Z,34.44
2018-09-18T11:42:08.950Z,34.35
2018-09-18T11:43:11.571Z,34.48
2018-09-18T11:44:09.064Z,34.37
2018-09-18T11:45:08.941Z,34.10
2018-09-18T11:46:08.940Z,34.11
2018-09-18T11:47:08.941Z,34.19
2018-09-18T11:48:08.946Z,34.56
2018-09-18T11:49:08.938Z,34.91
2018-09-18T11:50:08.942Z,34.89
2018-09-18T11:51:08.942Z,34.53
2018-09-18T11:52:08.927Z,34.37
2018-09-18T11:53:08.920Z,34.43
2018-09-18T11:54:08.920Z,34.35
2018-09-18T11:55:08.917Z,34.37
2018-09-18T11:56:08.907Z,34.02
2018-09-18T11:57:08.992Z,33.89
2018-09-18T11:58:08.900Z,34.32
2018-09-18T11:59:08.899Z,34.32
2018-09-18T12:00:08.925Z,33.85
2018-09-18T12:01:08.900Z,33.33
2018-09-18T12:02:08.885Z,33.35
2018-09-18T12:03:08.942Z,33.23
2018-09-18T12:04:08.874Z,33.32
2018-09-18T12:05:08.950Z,33.15
2018-09-18T12:06:08.866Z,33.20
2018-09-18T12:07:08.859Z,33.35
2018-09-18T12:08:08.864Z,33.38
2018-09-18T12:09:08.909Z,33.61
2018-09-18T12:10:08.855Z,33.58
2018-09-18T12:11:08.840Z,33.39
2018-09-18T12:12:08.835Z,32.95
2018-09-18T12:13:08.839Z,32.48
2018-09-18T12:14:08.826Z,32.38
2018-09-18T12:15:08.826Z,32.11
2018-09-18T12:16:08.811Z,32.19
2018-09-18T12:17:08.835Z,32.15
2018-09-18T12:18:08.797Z,31.93
2018-09-18T12:19:08.792Z,31.78
2018-09-18T12:20:08.805Z,31.74
2018-09-18T12:21:08.788Z,31.70
2018-09-18T12:22:08.777Z,31.78
2018-09-18T12:23:08.764Z,31.73
2018-09-18T12:24:08.766Z,31.73
2018-09-18T12:25:08.747Z,31.70
2018-09-18T12:26:08.769Z,31.74
2018-09-18T12:27:08.744Z,31.77
2018-09-18T12:28:08.739Z,31.78
2018-09-18T12:29:08.730Z,31.70
2018-09-18T12:30:08.727Z,31.81
2018-09-18T12:31:08.706Z,31.77
2018-09-18T12:32:08.705Z,31.79
2018-09-18T12:33:08.693Z,31.67
2018-09-18T12:34:08.691Z,31.69
2018-09-18T12:35:08.712Z,31.77
2018-09-18T12:36:08.692Z,31.74
2018-09-18T12:37:08.669Z,31.74
2018-09-18T12:38:08.663Z,31.74
2018-09-18T12:39:08.656Z,31.79
2018-09-18T12:40:08.644Z,31.79
2018-09-18T12:41:08.638Z,31.79
2018-09-18T12:42:08.871Z,31.73
2018-09-18T12:43:57.355Z,31.54
2018-09-18T12:44:57.354Z,31.37
2018-09-18T12:45:57.343Z,31.48
2018-09-18T12:46:57.329Z,31.50
2018-09-18T12:47:57.346Z,31.51
2018-09-18T12:48:57.331Z,31.50
2018-09-18T12:49:57.492Z,31.44
2018-09-18T12:50:57.421Z,31.44
2018-09-18T12:51:57.302Z,31.47
2018-09-18T12:52:57.284Z,31.45